Time;durP1;ratioP1;P1;durP2;ratioP2;P2;SDS_P1;SDS_P2;PMS_P1;PMS_P2;Temp;Humidity;BMP_temperature;BMP_pressure;BME280_temperature;BME280_humidity;BME280_pressure;Samples;Min_cycle;Max_cycle;Signal;HPM_P1;HPM_P2
2022/11/02 00:01:42;;;;;;;11.93;1.77;;;12.10;99.90;;;;;;5108875;28;20064;-47
2022/11/02 00:04:08;;;;;;;9.35;1.60;;;10.40;99.90;;;;;;5104421;28;20050;-53
2022/11/02 00:06:34;;;;;;;11.40;1.20;;;;;;;;;;5113621;28;20464;-47
2022/11/02 00:08:59;;;;;;;9.43;1.20;;;11.90;99.90;;;;;;5113496;28;20475;-54
2022/11/02 00:11:25;;;;;;;10.15;2.17;;;11.10;99.90;;;;;;5113073;28;20031;-49
2022/11/02 00:13:51;;;;;;;7.35;1.35;;;10.30;99.90;;;;;;5113479;28;20100;-50
2022/11/02 00:16:19;;;;;;;5.50;1.27;;;12.00;99.90;;;;;;5113150;28;20498;-48
2022/11/02 00:18:49;;;;;;;13.63;1.40;;;10.90;99.90;;;;;;5097588;28;20388;-49
2022/11/02 00:21:15;;;;;;;;;;;10.50;99.90;;;;;;5100996;28;20491;-47
2022/11/02 00:23:41;;;;;;;9.60;1.27;;;10.30;99.90;;;;;;5112992;28;20575;-52
2022/11/02 00:26:07;;;;;;;5.50;0.85;;;8.60;99.90;;;;;;5084713;28;20038;-52
2022/11/02 00:28:33;;;;;;;8.98;1.10;;;10.50;99.90;;;;;;5112787;28;20417;-51
2022/11/02 00:30:59;;;;;;;5.72;0.85;;;10.30;99.90;;;;;;5112903;28;20027;-48
2022/11/02 00:33:25;;;;;;;9.73;1.50;;;10.40;99.90;;;;;;5113105;28;20328;-51
2022/11/02 00:35:53;;;;;;;6.90;1.10;;;12.00;99.90;;;;;;5112719;28;20027;-50
2022/11/02 00:38:18;;;;;;;8.10;1.52;;;10.60;99.90;;;;;;5112710;28;20024;-48
2022/11/02 00:40:44;;;;;;;4.85;1.00;;;11.20;99.90;;;;;;5112225;28;20122;-51
2022/11/02 00:43:10;;;;;;;6.20;0.98;;;11.70;99.90;;;;;;5098769;28;20030;-52
2022/11/02 00:45:36;;;;;;;6.03;0.90;;;;;;;;;;5112699;28;20085;-52
2022/11/02 00:48:03;;;;;;;10.52;1.42;;;10.60;99.90;;;;;;5105794;28;20106;-46
2022/11/02 00:50:29;;;;;;;7.70;1.65;;;;;;;;;;5111351;28;20441;-46
2022/11/02 00:52:54;;;;;;;8.35;1.20;;;10.40;99.90;;;;;;5112334;28;20028;-52
2022/11/02 00:55:20;;;;;;;9.05;1.13;;;;;;;;;;5112406;28;20360;-46
2022/11/02 00:57:46;;;;;;;10.80;1.65;;;11.00;99.90;;;;;;5086813;28;20021;-54
2022/11/02 01:00:13;;;;;;;8.13;1.10;;;10.60;99.90;;;;;;5082163;28;20036;-53
2022/11/02 01:02:39;;;;;;;2.20;1.23;;;10.60;99.90;;;;;;5091859;28;20024;-53
2022/11/02 01:05:07;;;;;;;6.03;1.15;;;10.90;99.90;;;;;;5092029;28;20020;-50
2022/11/02 01:07:33;;;;;;;8.88;1.08;;;;;;;;;;5091681;28;20089;-53
2022/11/02 01:09:59;;;;;;;7.15;0.95;;;;;;;;;;5091843;28;20043;-46
2022/11/02 01:12:25;;;;;;;4.88;1.02;;;;;;;;;;5082145;28;20101;-47
2022/11/02 01:14:51;;;;;;;8.48;1.48;;;11.00;99.90;;;;;;5073490;28;20066;-45
2022/11/02 01:17:18;;;;;;;5.65;0.90;;;10.20;99.90;;;;;;5085200;28;20016;-45
2022/11/02 01:19:43;;;;;;;5.93;1.02;;;10.10;99.90;;;;;;5090659;28;20027;-46
2022/11/02 01:22:09;;;;;;;5.88;0.88;;;10.80;99.90;;;;;;5091602;28;20024;-46
2022/11/02 01:24:35;;;;;;;6.07;0.85;;;10.10;99.90;;;;;;5091437;28;20033;-50
2022/11/02 01:27:01;;;;;;;9.85;1.30;;;9.20;99.90;;;;;;5091563;28;20028;-46
2022/11/02 01:29:26;;;;;;;5.68;0.95;;;10.70;99.90;;;;;;5091521;28;20089;-53
2022/11/02 01:31:52;;;;;;;4.72;1.33;;;;;;;;;;5091302;28;20020;-47
2022/11/02 01:34:19;;;;;;;6.57;1.25;;;10.20;99.90;;;;;;5091500;28;20031;-48
2022/11/02 01:36:45;;;;;;;7.60;1.60;;;;;;;;;;5091096;28;20102;-48
2022/11/02 01:39:12;;;;;;;7.47;1.20;;;10.00;99.90;;;;;;5091522;28;20035;-47
2022/11/02 01:41:37;;;;;;;4.28;1.00;;;11.60;99.90;;;;;;5091281;28;20016;-51
2022/11/02 01:44:03;;;;;;;9.35;1.08;;;10.40;99.90;;;;;;5091258;28;20126;-49
2022/11/02 01:47:04;;;;;;;6.25;1.00;;;9.90;99.90;;;;;;5091078;28;20020;-47
2022/11/02 01:49:32;;;;;;;4.82;0.98;;;10.30;99.90;;;;;;5081846;28;20106;-51
2022/11/02 01:52:01;;;;;;;5.13;1.20;;;10.60;99.90;;;;;;5090987;28;20031;-49
2022/11/02 01:54:31;;;;;;;7.03;1.17;;;11.00;99.90;;;;;;5091207;28;20476;-47
2022/11/02 01:57:02;;;;;;;9.95;1.05;;;10.50;99.90;;;;;;5090846;28;20487;-48
2022/11/02 01:59:32;;;;;;;4.05;1.08;;;11.00;99.90;;;;;;5090702;28;20032;-49
2022/11/02 02:01:57;;;;;;;;;;;9.60;99.90;;;;;;5091315;28;20103;-52
2022/11/02 02:04:24;;;;;;;6.50;0.88;;;10.30;99.90;;;;;;5090993;28;19987;-50
2022/11/02 02:06:51;;;;;;;4.97;0.75;;;10.00;99.90;;;;;;5091090;28;20062;-48
2022/11/02 02:09:17;;;;;;;8.43;0.95;;;;;;;;;;5090601;28;20049;-48
2022/11/02 02:11:43;;;;;;;6.28;1.20;;;8.20;99.90;;;;;;5090909;28;20028;-47
2022/11/02 02:14:12;;;;;;;9.18;1.30;;;10.10;99.90;;;;;;5090746;28;20139;-49
2022/11/02 02:17:00;;;;;;;5.35;1.00;;;11.30;99.90;;;;;;5090916;28;20103;-48
2022/11/02 02:19:37;;;;;;;10.07;1.38;;;9.70;99.90;;;;;;5094194;28;20035;-49
2022/11/02 02:22:28;;;;;;;5.10;0.85;;;11.00;99.90;;;;;;5105678;28;20047;-46
2022/11/02 02:25:19;;;;;;;6.25;1.02;;;7.90;99.90;;;;;;5111327;28;20028;-51
2022/11/02 02:28:14;;;;;;;12.13;1.73;;;10.90;99.90;;;;;;5110991;28;20023;-47
2022/11/02 02:31:17;;;;;;;9.60;0.95;;;9.80;99.90;;;;;;5097894;28;20042;-50
2022/11/02 02:34:00;;;;;;;12.68;1.13;;;10.70;99.90;;;;;;5082470;28;20115;-49
2022/11/02 02:36:38;;;;;;;7.10;1.10;;;9.70;99.90;;;;;;5090405;28;20411;-50
2022/11/02 02:39:18;;;;;;;5.85;1.00;;;9.60;99.90;;;;;;5089282;28;20063;-47
2022/11/02 02:41:59;;;;;;;12.32;1.33;;;10.00;99.90;;;;;;5085358;28;20032;-50
2022/11/02 02:44:29;;;;;;;10.45;1.50;;;9.40;99.90;;;;;;5090336;28;20074;-52
2022/11/02 02:46:58;;;;;;;14.77;1.33;;;9.90;99.90;;;;;;5090468;28;20020;-48
2022/11/02 02:49:35;;;;;;;9.25;1.35;;;9.70;99.90;;;;;;5090241;28;20040;-49
2022/11/02 02:52:02;;;;;;;8.90;1.20;;;9.90;99.90;;;;;;5090716;28;20100;-49
2022/11/02 02:54:36;;;;;;;5.72;1.00;;;9.10;99.90;;;;;;5090748;28;20032;-46
2022/11/02 02:57:30;;;;;;;6.78;1.30;;;6.80;99.90;;;;;;5077499;28;20142;-49
2022/11/02 02:59:56;;;;;;;9.75;1.45;;;10.00;99.90;;;;;;5088522;28;20561;-49
2022/11/02 03:02:32;;;;;;;8.20;0.88;;;9.20;99.90;;;;;;5090650;28;20024;-46
2022/11/02 03:04:58;;;;;;;12.02;1.20;;;9.70;99.90;;;;;;5090168;28;20024;-50
2022/11/02 03:07:30;;;;;;;11.10;1.67;;;9.10;99.90;;;;;;5090361;28;20028;-48
2022/11/02 03:10:02;;;;;;;11.40;1.58;;;5.90;99.90;;;;;;5090291;28;20574;-48
2022/11/02 03:12:52;;;;;;;7.03;1.15;;;9.10;99.90;;;;;;5093506;28;20036;-47
2022/11/02 03:15:54;;;;;;;5.93;0.82;;;9.10;99.90;;;;;;5094151;28;20020;-46
2022/11/02 03:18:29;;;;;;;9.85;1.38;;;9.30;99.90;;;;;;5092948;28;20044;-54
2022/11/02 03:21:04;;;;;;;11.50;1.30;;;10.10;99.90;;;;;;5088924;28;20107;-52
2022/11/02 03:23:42;;;;;;;11.57;1.73;;;8.80;99.90;;;;;;5093740;28;20047;-49
2022/11/02 03:26:38;;;;;;;11.73;1.05;;;9.80;99.90;;;;;;5093929;28;20066;-51
2022/11/02 03:29:20;;;;;;;9.70;1.30;;;10.10;99.90;;;;;;5093344;28;20190;-48
2022/11/02 03:31:57;;;;;;;7.25;1.20;;;9.10;99.90;;;;;;5093675;28;20414;-46
2022/11/02 03:34:54;;;;;;;9.07;1.40;;;5.80;99.90;;;;;;5093599;28;20020;-56
2022/11/02 03:37:33;;;;;;;6.30;1.42;;;10.20;99.90;;;;;;5093448;28;20032;-47
2022/11/02 03:40:19;;;;;;;7.27;1.90;;;9.00;99.90;;;;;;5093495;28;20047;-48
2022/11/02 03:42:46;;;;;;;6.63;0.90;;;8.90;99.90;;;;;;5093003;28;20253;-50
2022/11/02 03:45:19;;;;;;;8.13;1.42;;;10.30;99.90;;;;;;5093481;28;20032;-52
2022/11/02 03:48:13;;;;;;;9.45;1.60;;;8.90;99.90;;;;;;5093251;28;20036;-46
2022/11/02 03:50:45;;;;;;;9.35;1.48;;;10.30;99.90;;;;;;5090933;28;20032;-52
2022/11/02 03:53:30;;;;;;;9.38;1.75;;;10.90;99.90;;;;;;5091825;28;20052;-46
2022/11/02 03:56:07;;;;;;;12.25;1.40;;;9.80;99.90;;;;;;5087652;28;20122;-46
2022/11/02 03:58:34;;;;;;;6.43;1.05;;;9.10;99.90;;;;;;5093199;28;20043;-50
2022/11/02 04:01:02;;;;;;;10.77;1.25;;;8.80;99.90;;;;;;5092947;28;20032;-46
2022/11/02 04:03:30;;;;;;;6.37;1.17;;;8.70;99.90;;;;;;5092906;28;20392;-51
2022/11/02 04:05:56;;;;;;;8.60;1.08;;;9.80;99.90;;;;;;5093122;28;20043;-52
2022/11/02 04:08:31;;;;;;;6.72;1.00;;;9.50;99.90;;;;;;5092806;28;20062;-47
2022/11/02 04:16:25;;;;;;;12.90;1.42;;;9.10;99.90;;;;;;5093143;28;20094;-52
2022/11/02 04:21:36;;;;;;;8.55;1.58;;;;;;;;;;5092695;28;20043;-46
2022/11/02 04:26:46;;;;;;;10.00;2.38;;;5.80;99.90;;;;;;5092665;28;20035;-46
2022/11/02 04:29:11;;;;;;;11.43;1.88;;;10.00;99.90;;;;;;5092544;28;20036;-48
2022/11/02 04:31:37;;;;;;;6.57;1.17;;;;;;;;;;5092366;28;20022;-48
2022/11/02 04:34:03;;;;;;;8.82;1.35;;;9.80;99.90;;;;;;5092034;28;20081;-49
2022/11/02 04:36:30;;;;;;;15.18;2.95;;;8.70;99.90;;;;;;5092427;28;20066;-45
2022/11/02 04:38:56;;;;;;;7.32;1.20;;;9.80;99.90;;;;;;5092500;28;20055;-46
2022/11/02 04:41:41;;;;;;;13.02;2.42;;;6.30;99.90;;;;;;5092367;28;20473;-46
2022/11/02 04:44:07;;;;;;;13.70;1.65;;;9.80;99.90;;;;;;5091878;28;20499;-46
2022/11/02 04:46:35;;;;;;;6.63;1.58;;;9.60;99.90;;;;;;5092326;28;20012;-48
2022/11/02 04:49:01;;;;;;;11.50;1.52;;;9.70;99.90;;;;;;5092197;28;20036;-47
2022/11/02 04:51:28;;;;;;;8.73;1.42;;;5.90;99.90;;;;;;5092035;28;20070;-46
2022/11/02 04:53:56;;;;;;;10.55;1.60;;;9.10;99.90;;;;;;5092212;28;20110;-46
2022/11/02 04:56:23;;;;;;;8.80;1.83;;;10.30;99.90;;;;;;5092049;28;20082;-45
2022/11/02 04:58:56;;;;;;;8.93;1.58;;;9.00;99.90;;;;;;5091966;28;20028;-49
2022/11/02 05:01:24;;;;;;;12.35;1.50;;;8.10;99.90;;;;;;5091922;28;20488;-48
2022/11/02 05:03:51;;;;;;;7.38;1.52;;;9.20;99.90;;;;;;5091737;28;20061;-50
2022/11/02 05:06:19;;;;;;;15.38;1.63;;;9.10;99.90;;;;;;5092224;28;20028;-51
2022/11/02 05:08:45;;;;;;;9.90;1.77;;;10.40;99.90;;;;;;5091737;28;20085;-45
2022/11/02 05:11:11;;;;;;;9.93;1.52;;;;;;;;;;5091754;28;20024;-45
2022/11/02 05:13:38;;;;;;;9.88;1.55;;;10.60;99.90;;;;;;5092018;28;20024;-50
2022/11/02 05:16:05;;;;;;;13.93;1.70;;;10.60;99.90;;;;;;5091781;28;20472;-46
2022/11/02 05:18:31;;;;;;;12.75;1.92;;;9.60;99.90;;;;;;5091353;28;20089;-52
2022/11/02 05:20:58;;;;;;;6.32;1.20;;;9.90;99.90;;;;;;5091720;28;20020;-49
2022/11/02 05:23:24;;;;;;;8.63;1.52;;;9.20;99.90;;;;;;5091498;28;20032;-51
2022/11/02 05:26:05;;;;;;;11.40;1.50;;;8.20;99.90;;;;;;5090180;28;20026;-47
2022/11/02 05:28:32;;;;;;;10.20;1.42;;;6.10;99.90;;;;;;5091317;28;20434;-47
2022/11/02 05:30:59;;;;;;;10.02;1.45;;;10.60;99.90;;;;;;5090150;28;20472;-49
2022/11/02 05:33:27;;;;;;;14.18;1.70;;;5.80;99.90;;;;;;5090380;28;20380;-51
2022/11/02 05:35:54;;;;;;;9.30;1.35;;;9.50;99.90;;;;;;5083234;28;20020;-53
2022/11/02 05:38:20;;;;;;;14.45;1.60;;;;;;;;;;5090067;28;20032;-47
2022/11/02 05:40:52;;;;;;;9.45;1.50;;;10.10;99.90;;;;;;5091347;28;20024;-54
2022/11/02 05:43:17;;;;;;;16.63;1.63;;;11.00;99.90;;;;;;5091164;28;20453;-53
2022/11/02 05:45:43;;;;;;;4.32;0.90;;;;;;;;;;5091085;28;20046;-49
2022/11/02 05:48:09;;;;;;;9.88;1.92;;;10.00;99.90;;;;;;5091177;28;20032;-49
2022/11/02 05:50:35;;;;;;;6.90;1.35;;;;;;;;;;5091202;28;20071;-53
2022/11/02 05:53:01;;;;;;;11.05;1.63;;;6.30;99.90;;;;;;5090820;28;20024;-47
2022/11/02 05:55:26;;;;;;;6.57;1.10;;;10.10;99.90;;;;;;5091065;28;20074;-52
2022/11/02 05:57:53;;;;;;;9.25;2.13;;;8.60;99.90;;;;;;5090923;28;20016;-52
2022/11/02 06:00:21;;;;;;;16.20;1.40;;;8.60;99.90;;;;;;5091063;28;20046;-51
2022/11/02 06:02:55;;;;;;;14.98;1.67;;;9.40;99.90;;;;;;5090698;28;20032;-46
2022/11/02 06:05:22;;;;;;;4.88;1.40;;;;;;;;;;5090649;28;20123;-46
2022/11/02 06:07:47;;;;;;;13.52;1.80;;;;;;;;;;5089440;28;20475;-47
2022/11/02 06:10:13;;;;;;;14.75;1.70;;;9.00;99.90;;;;;;5091145;28;20040;-46
2022/11/02 06:12:39;;;;;;;10.15;1.30;;;;;;;;;;5090968;28;20119;-46
2022/11/02 06:15:05;;;;;;;10.55;1.30;;;9.00;99.90;;;;;;5090921;28;20028;-50
2022/11/02 06:17:38;;;;;;;12.35;1.80;;;8.30;99.90;;;;;;5090824;28;20039;-50
2022/11/02 06:20:05;;;;;;;10.82;1.73;;;6.70;99.90;;;;;;5089661;28;20036;-45
2022/11/02 06:22:37;;;;;;;9.07;1.95;;;9.30;99.90;;;;;;5083544;28;20025;-48
2022/11/02 06:25:03;;;;;;;16.10;1.55;;;;;;;;;;5086571;28;20036;-51
2022/11/02 06:27:28;;;;;;;6.40;1.35;;;9.50;99.90;;;;;;5090463;28;20023;-48
2022/11/02 06:29:54;;;;;;;6.05;0.95;;;9.80;99.90;;;;;;5089312;28;20400;-50
2022/11/02 06:32:20;;;;;;;4.90;1.50;;;10.30;99.90;;;;;;5090268;28;20035;-48
2022/11/02 06:34:45;;;;;;;6.05;0.80;;;9.70;99.90;;;;;;5090410;28;20074;-49
2022/11/02 06:37:11;;;;;;;6.00;1.30;;;9.20;99.90;;;;;;5090408;28;20018;-51
2022/11/02 06:39:37;;;;;;;7.75;1.20;;;;;;;;;;5090394;28;20020;-45
2022/11/02 06:42:02;;;;;;;11.70;1.38;;;9.70;99.90;;;;;;5090496;28;20020;-48
2022/11/02 06:44:28;;;;;;;7.07;1.00;;;5.90;99.90;;;;;;5089318;28;20097;-47
2022/11/02 06:46:54;;;;;;;3.75;0.82;;;10.30;99.90;;;;;;5094476;28;20047;-50
2022/11/02 06:49:19;;;;;;;6.97;1.35;;;9.20;99.90;;;;;;5094276;28;20043;-49
2022/11/02 06:51:45;;;;;;;4.32;1.10;;;;;;;;;;5094641;28;20453;-53
2022/11/02 06:54:11;;;;;;;6.65;0.93;;;6.10;99.90;;;;;;5094319;28;20472;-48
2022/11/02 06:56:37;;;;;;;5.95;1.20;;;;;;;;;;5094532;28;20032;-51
2022/11/02 06:59:03;;;;;;;7.65;1.02;;;;;;;;;;5094282;28;20494;-46
2022/11/02 07:01:28;;;;;;;5.03;0.90;;;6.30;99.90;;;;;;5093895;28;20016;-52
2022/11/02 07:03:54;;;;;;;5.20;1.05;;;;;;;;;;5093930;28;20427;-49
2022/11/02 07:06:20;;;;;;;9.15;1.23;;;6.80;99.90;;;;;;5093911;28;20035;-46
2022/11/02 07:08:46;;;;;;;6.50;1.15;;;9.50;99.90;;;;;;5094216;28;20032;-49
2022/11/02 07:11:13;;;;;;;10.80;1.38;;;8.50;99.90;;;;;;5093004;28;20106;-48
2022/11/02 07:13:39;;;;;;;8.35;1.77;;;;;;;;;;5094087;28;20024;-46
2022/11/02 07:16:05;;;;;;;8.02;1.40;;;9.80;99.90;;;;;;5094094;28;20088;-46
2022/11/02 07:18:31;;;;;;;5.70;1.23;;;;;;;;;;5093456;28;20043;-46
2022/11/02 07:21:01;;;;;;;9.20;1.55;;;6.50;99.90;;;;;;5090477;28;20024;-51
2022/11/02 07:23:27;;;;;;;;;;;8.60;99.90;;;;;;5093851;28;20020;-50
2022/11/02 07:25:52;;;;;;;8.23;1.45;;;10.20;99.90;;;;;;5093148;28;20379;-50
2022/11/02 07:28:18;;;;;;;8.15;1.35;;;8.70;99.90;;;;;;5092694;28;20473;-46
2022/11/02 07:30:44;;;;;;;14.98;1.85;;;9.70;99.90;;;;;;5091238;28;20035;-49
2022/11/02 07:33:10;;;;;;;8.18;1.42;;;;;;;;;;5092998;28;20029;-53
2022/11/02 07:35:36;;;;;;;5.40;1.40;;;9.60;99.90;;;;;;5091954;28;20026;-46
2022/11/02 07:38:04;;;;;;;7.63;1.73;;;8.60;99.90;;;;;;5093446;28;20035;-52
2022/11/02 07:40:31;;;;;;;13.00;1.90;;;9.70;99.90;;;;;;5093314;28;20031;-47
2022/11/02 07:42:58;;;;;;;9.60;1.98;;;9.00;99.90;;;;;;5093261;28;20534;-51
2022/11/02 07:45:24;;;;;;;7.97;2.25;;;7.80;99.90;;;;;;5093035;28;20035;-52
2022/11/02 07:47:50;;;;;;;14.50;4.25;;;7.30;99.90;;;;;;5091885;28;20099;-46
2022/11/02 07:50:19;;;;;;;7.45;1.83;;;10.30;99.90;;;;;;5093482;28;20127;-49
2022/11/02 07:52:47;;;;;;;10.27;1.90;;;8.60;99.90;;;;;;5093231;28;20023;-52
2022/11/02 07:55:14;;;;;;;12.98;2.40;;;9.60;99.90;;;;;;5092695;28;20031;-46
2022/11/02 07:57:42;;;;;;;8.20;2.25;;;10.90;99.90;;;;;;5092668;28;20033;-47
2022/11/02 08:00:11;;;;;;;6.75;1.60;;;9.00;99.90;;;;;;5092534;28;20070;-48
2022/11/02 08:02:37;;;;;;;8.13;1.90;;;10.00;99.90;;;;;;5092613;28;20394;-48
2022/11/02 08:05:03;;;;;;;9.43;2.35;;;;;;;;;;5092513;28;20032;-46
2022/11/02 08:07:29;;;;;;;7.10;1.65;;;;;;;;;;5092834;28;20039;-49
2022/11/02 08:09:55;;;;;;;7.20;1.55;;;10.10;99.90;;;;;;5092833;28;20028;-50
2022/11/02 08:12:21;;;;;;;4.93;1.50;;;;;;;;;;5092633;28;20020;-48
2022/11/02 08:14:47;;;;;;;9.73;1.65;;;;;;;;;;5082523;28;20065;-46
2022/11/02 08:17:13;;;;;;;8.50;1.90;;;;;;;;;;5087986;28;20050;-47
2022/11/02 08:19:39;;;;;;;6.70;1.70;;;10.70;99.90;;;;;;5092288;28;20043;-45
2022/11/02 08:22:04;;;;;;;9.15;2.58;;;10.80;99.90;;;;;;5088466;28;20028;-46
2022/11/02 08:24:30;;;;;;;8.18;1.75;;;;;;;;;;5079806;28;20044;-47
2022/11/02 08:26:56;;;;;;;8.15;1.58;;;12.10;99.90;;;;;;5084896;28;20066;-53
2022/11/02 08:29:22;;;;;;;9.02;2.47;;;;;;;;;;5089578;28;20055;-47
2022/11/02 08:31:48;;;;;;;11.75;1.85;;;14.10;99.90;;;;;;5084229;28;20107;-49
2022/11/02 08:34:14;;;;;;;16.13;2.10;;;;;;;;;;5075030;28;20123;-47
2022/11/02 08:36:39;;;;;;;6.03;1.33;;;16.40;99.90;;;;;;5088699;28;20070;-49
2022/11/02 08:39:05;;;;;;;9.40;1.60;;;16.40;99.90;;;;;;5091635;28;20443;-50
2022/11/02 08:41:31;;;;;;;12.57;1.80;;;;;;;;;;5092079;28;20024;-50
2022/11/02 08:43:57;;;;;;;9.45;1.67;;;18.10;99.90;;;;;;5091014;28;20070;-50
2022/11/02 08:46:23;;;;;;;11.38;1.60;;;18.80;99.90;;;;;;5092130;28;20020;-52
2022/11/02 08:48:49;;;;;;;8.38;1.80;;;19.40;99.90;;;;;;5091463;28;20107;-47
2022/11/02 08:51:15;;;;;;;12.57;1.35;;;19.80;99.90;;;;;;5091627;28;20107;-50
2022/11/02 08:53:41;;;;;;;12.32;1.70;;;;;;;;;;5091745;28;20016;-49
2022/11/02 08:56:07;;;;;;;9.10;1.73;;;;;;;;;;5091197;28;20032;-51
2022/11/02 08:58:32;;;;;;;11.02;1.48;;;20.10;98.00;;;;;;5087581;28;20020;-48
2022/11/02 09:00:58;;;;;;;10.57;1.65;;;19.50;98.30;;;;;;5082207;28;20498;-54
2022/11/02 09:03:24;;;;;;;10.73;1.50;;;18.40;99.90;;;;;;5087420;28;20028;-48
2022/11/02 09:05:55;;;;;;;9.63;1.38;;;13.70;99.90;;;;;;5090284;28;20053;-46
2022/11/02 09:08:20;;;;;;;7.82;1.30;;;16.40;99.90;;;;;;5088497;28;20496;-46
2022/11/02 09:10:50;;;;;;;7.95;1.95;;;15.70;99.90;;;;;;5090729;28;20070;-46
2022/11/02 09:13:19;;;;;;;8.90;1.70;;;15.40;99.90;;;;;;5091321;28;20115;-52
2022/11/02 09:15:48;;;;;;;10.52;1.52;;;17.90;99.90;;;;;;5091458;28;20024;-48
2022/11/02 09:18:14;;;;;;;7.22;1.38;;;18.20;99.90;;;;;;5090834;28;20506;-46
2022/11/02 09:20:40;;;;;;;4.90;1.08;;;19.60;99.90;;;;;;5090951;28;20020;-47
2022/11/02 09:23:05;;;;;;;11.50;1.70;;;20.80;98.50;;;;;;5090619;28;20028;-53
2022/11/02 09:25:31;;;;;;;8.05;1.80;;;22.00;95.50;;;;;;5087949;28;20035;-47
2022/11/02 09:27:58;;;;;;;10.13;1.52;;;22.00;95.10;;;;;;5090741;28;20036;-50
2022/11/02 09:30:25;;;;;;;10.40;1.50;;;21.60;95.00;;;;;;5090707;28;20028;-50
2022/11/02 09:33:01;;;;;;;12.23;1.50;;;21.50;95.30;;;;;;5090497;28;20081;-46
2022/11/02 09:35:29;;;;;;;9.73;1.85;;;21.80;94.20;;;;;;5088768;28;20115;-52
2022/11/02 09:37:55;;;;;;;10.13;1.92;;;23.00;92.70;;;;;;5073319;28;20481;-51
2022/11/02 09:40:27;;;;;;;9.55;1.98;;;22.90;92.30;;;;;;5072903;28;20029;-46
2022/11/02 09:43:07;;;;;;;10.25;1.77;;;20.90;91.50;;;;;;5075754;28;20012;-51
2022/11/02 09:45:51;;;;;;;9.38;1.42;;;24.40;91.90;;;;;;5072920;28;20024;-45
2022/11/02 09:48:21;;;;;;;10.43;1.77;;;22.90;91.50;;;;;;5071807;28;20032;-46
2022/11/02 09:51:28;;;;;;;8.85;1.80;;;21.30;92.80;;;;;;5071861;28;20032;-46
2022/11/02 09:54:17;;;;;;;14.57;2.78;;;18.70;96.10;;;;;;5010263;28;20069;-47
2022/11/02 09:56:44;;;;;;;12.25;1.77;;;17.00;99.90;;;;;;5074979;28;20044;-53
2022/11/02 09:59:29;;;;;;;12.70;1.95;;;16.10;99.90;;;;;;5082011;28;20362;-45
2022/11/02 10:01:59;;;;;;;12.63;1.90;;;16.00;99.90;;;;;;5072349;28;20067;-46
2022/11/02 10:04:47;;;;;;;12.00;2.00;;;15.00;99.90;;;;;;5083744;28;20039;-47
2022/11/02 10:07:43;;;;;;;14.23;2.08;;;15.30;99.90;;;;;;5074664;28;20086;-55
2022/11/02 10:10:40;;;;;;;12.30;2.40;;;15.70;99.90;;;;;;5089815;28;20480;-49
2022/11/02 10:13:21;;;;;;;15.68;1.63;;;16.30;99.90;;;;;;5087389;28;20115;-47
2022/11/02 10:15:52;;;;;;;17.23;2.22;;;16.30;99.90;;;;;;5083458;28;20029;-52
2022/11/02 10:18:25;;;;;;;16.08;1.83;;;16.70;99.90;;;;;;5085830;28;20095;-52
2022/11/02 10:20:57;;;;;;;13.40;1.90;;;15.90;99.90;;;;;;5084850;28;20045;-52
2022/11/02 10:23:41;;;;;;;16.27;2.13;;;16.90;99.90;;;;;;5082451;28;20085;-47
2022/11/02 10:26:22;;;;;;;7.38;1.45;;;17.10;99.90;;;;;;5085041;28;20395;-49
2022/11/02 10:28:56;;;;;;;16.73;2.22;;;18.50;99.90;;;;;;5083333;28;20027;-50
2022/11/02 10:31:24;;;;;;;9.10;1.52;;;18.50;99.90;;;;;;5089391;28;20027;-46
2022/11/02 10:33:50;;;;;;;14.68;1.88;;;;;;;;;;5085876;28;20104;-49
2022/11/02 10:36:31;;;;;;;9.88;2.30;;;19.80;97.30;;;;;;5109508;28;20112;-52
2022/11/02 10:39:04;;;;;;;16.85;2.78;;;20.10;99.80;;;;;;5109538;28;20545;-52
2022/11/02 10:42:09;;;;;;;9.25;1.50;;;18.90;99.90;;;;;;5102662;28;20024;-51
2022/11/02 10:45:00;;;;;;;11.10;1.98;;;17.50;99.90;;;;;;5107839;28;20028;-45
2022/11/02 10:47:55;;;;;;;10.70;1.95;;;17.90;99.40;;;;;;5096860;28;20027;-49
2022/11/02 10:50:52;;;;;;;11.05;2.05;;;18.20;99.90;;;;;;5087315;28;20032;-48
2022/11/02 10:53:19;;;;;;;18.33;2.33;;;19.50;99.90;;;;;;5088043;28;20020;-49
2022/11/02 10:55:55;;;;;;;9.95;2.40;;;19.30;99.80;;;;;;5088269;28;20099;-50
2022/11/02 10:58:22;;;;;;;9.63;1.80;;;19.80;97.80;;;;;;5086696;28;20348;-49
2022/11/02 11:00:47;;;;;;;12.02;2.03;;;20.20;97.90;;;;;;5076971;28;20025;-51
2022/11/02 11:03:17;;;;;;;13.57;1.73;;;21.00;98.60;;;;;;5088087;28;20019;-49
2022/11/02 11:06:03;;;;;;;10.70;1.95;;;20.00;97.10;;;;;;5088092;28;20106;-48
2022/11/02 11:08:35;;;;;;;10.07;1.95;;;21.30;94.90;;;;;;5081374;28;20036;-50
2022/11/02 11:11:14;;;;;;;6.53;1.38;;;20.90;95.70;;;;;;5079439;28;20115;-50
2022/11/02 11:13:42;;;;;;;12.38;2.05;;;20.30;95.20;;;;;;5074648;28;20025;-48
2022/11/02 11:16:09;;;;;;;9.75;1.50;;;20.00;96.30;;;;;;5071675;28;20040;-51
2022/11/02 11:18:35;;;;;;;12.25;1.88;;;;;;;;;;5074817;28;20459;-49
2022/11/02 11:21:01;;;;;;;8.23;1.50;;;;;;;;;;5070951;28;20523;-56
2022/11/02 11:23:27;;;;;;;13.93;2.00;;;20.70;96.10;;;;;;5070733;28;20094;-50
2022/11/02 11:25:55;;;;;;;9.70;2.00;;;20.60;95.20;;;;;;5070065;28;20436;-57
2022/11/02 11:28:24;;;;;;;9.57;1.70;;;19.70;95.20;;;;;;5075834;28;20020;-47
2022/11/02 11:31:18;;;;;;;11.38;1.88;;;20.00;96.60;;;;;;5073372;28;20035;-48
2022/11/02 11:33:54;;;;;;;12.05;2.15;;;19.70;99.10;;;;;;5083622;28;20020;-48
2022/11/02 11:36:24;;;;;;;15.23;2.80;;;18.10;98.20;;;;;;5093570;28;20028;-51
2022/11/02 11:38:51;;;;;;;13.38;1.88;;;18.80;97.80;;;;;;5077895;28;20187;-47
2022/11/02 11:41:17;;;;;;;10.77;2.03;;;18.90;98.90;;;;;;5091333;28;20032;-48
2022/11/02 11:43:45;;;;;;;12.45;2.70;;;20.00;99.10;;;;;;5088244;28;20035;-49
2022/11/02 11:46:14;;;;;;;13.15;2.60;;;20.30;98.90;;;;;;5091936;28;20047;-52
2022/11/02 11:48:40;;;;;;;13.60;2.90;;;;;;;;;;5092883;28;20115;-48
2022/11/02 11:51:25;;;;;;;13.40;3.00;;;18.20;99.90;;;;;;5092538;28;20104;-47
2022/11/02 11:54:16;;;;;;;15.45;3.70;;;18.00;99.60;;;;;;5092790;28;20020;-50
2022/11/02 11:56:42;;;;;;;16.42;3.17;;;;;;;;;;5078455;28;20028;-45
2022/11/02 11:59:27;;;;;;;23.13;6.60;;;18.00;99.90;;;;;;5090545;28;20092;-46
2022/11/02 12:02:01;;;;;;;17.98;6.00;;;17.60;99.20;;;;;;5078819;28;20407;-45
2022/11/02 12:04:34;;;;;;;14.80;3.67;;;17.70;99.90;;;;;;5086136;28;20024;-48
2022/11/02 12:07:18;;;;;;;16.40;1.98;;;18.00;99.90;;;;;;5096971;28;20084;-46
2022/11/02 12:09:59;;;;;;;13.18;2.40;;;18.50;99.40;;;;;;5112997;28;20082;-49
2022/11/02 12:12:47;;;;;;;15.50;2.95;;;19.00;99.90;;;;;;5087062;28;20031;-47
2022/11/02 12:15:27;;;;;;;10.80;2.45;;;17.60;99.10;;;;;;5113034;28;20032;-48
2022/11/02 12:17:55;;;;;;;12.68;2.05;;;19.30;99.90;;;;;;5112921;28;20036;-44
2022/11/02 12:20:34;;;;;;;12.63;2.63;;;17.90;98.80;;;;;;5113158;28;20039;-53
2022/11/02 12:23:19;;;;;;;10.95;1.95;;;18.30;99.80;;;;;;5092370;28;20067;-49
2022/11/02 12:26:05;;;;;;;11.75;1.95;;;17.90;99.50;;;;;;5113539;28;20476;-51
2022/11/02 12:29:01;;;;;;;12.52;2.00;;;18.10;99.90;;;;;;5112679;28;20479;-52
2022/11/02 12:31:40;;;;;;;13.95;2.20;;;18.30;99.90;;;;;;5112855;28;20545;-54
2022/11/02 12:34:21;;;;;;;12.97;2.40;;;18.00;99.40;;;;;;5112806;28;20449;-55
2022/11/02 12:36:59;;;;;;;14.88;2.67;;;18.30;99.90;;;;;;5112665;28;20472;-49
2022/11/02 12:39:36;;;;;;;10.30;2.23;;;18.20;99.90;;;;;;5108009;28;20024;-47
2022/11/02 12:42:17;;;;;;;14.82;2.30;;;17.50;99.30;;;;;;5092264;28;20257;-46
2022/11/02 12:45:05;;;;;;;10.27;2.10;;;16.60;99.90;;;;;;5110107;28;20020;-50
2022/11/02 12:47:48;;;;;;;16.10;4.00;;;16.40;99.90;;;;;;5097489;28;20028;-50
2022/11/02 12:50:20;;;;;;;17.45;3.00;;;17.40;99.90;;;;;;5091467;28;20089;-47
2022/11/02 12:52:48;;;;;;;15.68;3.35;;;16.00;99.90;;;;;;5091647;28;20055;-56
2022/11/02 12:55:20;;;;;;;11.85;2.90;;;13.80;99.90;;;;;;5091536;28;20090;-58
2022/11/02 12:57:47;;;;;;;15.55;3.40;;;14.90;99.90;;;;;;5091573;28;20028;-53
2022/11/02 13:00:19;;;;;;;19.58;3.30;;;16.70;99.90;;;;;;5086385;28;20389;-46
2022/11/02 13:03:00;;;;;;;14.63;2.42;;;16.50;99.90;;;;;;5079184;28;20040;-60
2022/11/02 13:05:49;;;;;;;15.10;2.50;;;13.50;99.90;;;;;;5090048;28;20019;-57
2022/11/02 13:08:24;;;;;;;17.00;2.20;;;15.90;99.90;;;;;;5091634;28;20062;-59
2022/11/02 13:10:57;;;;;;;13.57;2.30;;;16.90;99.90;;;;;;5091638;28;20484;-48
2022/11/02 13:13:38;;;;;;;15.02;2.40;;;16.80;99.90;;;;;;5090829;28;20039;-48
2022/11/02 13:16:07;;;;;;;14.77;2.25;;;15.70;99.90;;;;;;5091213;28;20024;-49
2022/11/02 13:18:46;;;;;;;20.53;3.63;;;15.40;99.90;;;;;;5091168;28;20073;-53
2022/11/02 13:21:15;;;;;;;14.20;3.10;;;15.40;99.90;;;;;;5091568;28;20477;-46
2022/11/02 13:23:48;;;;;;;;;;;15.40;99.90;;;;;;5091691;28;20419;-47
2022/11/02 13:26:36;;;;;;;15.55;2.92;;;15.20;99.90;;;;;;5091467;28;19907;-49
2022/11/02 13:29:05;;;;;;;13.15;2.55;;;15.30;99.90;;;;;;5090993;28;20431;-46
2022/11/02 13:31:43;;;;;;;16.35;2.85;;;15.50;99.90;;;;;;5090953;28;20020;-48
2022/11/02 13:34:14;;;;;;;18.27;3.00;;;15.20;99.90;;;;;;5091036;28;20028;-52